Time;durP1;ratioP1;P1;durP2;ratioP2;P2;SDS_P1;SDS_P2;PMS_P1;PMS_P2;Temp;Humidity;BMP_temperature;BMP_pressure;BME280_temperature;BME280_humidity;BME280_pressure;Samples;Min_cycle;Max_cycle;Signal;HPM_P1;HPM_P2
2021/10/24 00:01:10;;;;;;;28.42;15.90;;;;;;;7.78;100.00;102775.47;5023557;28;20128;-80
2021/10/24 00:03:36;;;;;;;28.42;16.92;;;;;;;7.76;100.00;102780.63;5021379;28;20057;-80
2021/10/24 00:06:01;;;;;;;27.67;16.73;;;;;;;7.73;100.00;102783.03;5017301;28;20025;-79
2021/10/24 00:08:28;;;;;;;25.90;16.80;;;;;;;7.68;100.00;102777.53;5017167;28;20018;-79
2021/10/24 00:10:53;;;;;;;29.73;17.42;;;;;;;7.65;100.00;102782.59;5024817;28;20041;-80
2021/10/24 00:13:18;;;;;;;20.70;15.95;;;;;;;7.59;100.00;102771.72;5028529;28;20124;-80
2021/10/24 00:15:44;;;;;;;24.60;16.15;;;;;;;7.57;100.00;102776.00;5024028;28;20448;-79
2021/10/24 00:18:09;;;;;;;27.13;18.08;;;;;;;7.53;100.00;102772.28;5018113;28;20117;-79
2021/10/24 00:20:35;;;;;;;27.75;16.88;;;;;;;7.49;100.00;102769.34;5020735;28;20026;-79
2021/10/24 00:23:01;;;;;;;27.58;17.92;;;;;;;7.48;100.00;102767.56;5015926;28;20414;-79
2021/10/24 00:25:27;;;;;;;27.98;18.33;;;;;;;7.49;100.00;102764.13;5015860;28;20493;-79
2021/10/24 00:27:53;;;;;;;35.35;18.60;;;;;;;7.47;100.00;102763.13;5017212;28;20116;-79
2021/10/24 00:30:18;;;;;;;33.13;18.60;;;;;;;7.47;100.00;102764.03;5014994;28;20029;-79
2021/10/24 00:32:43;;;;;;;33.92;18.90;;;;;;;7.48;100.00;102757.09;5015881;28;20042;-80
2021/10/24 00:35:09;;;;;;;28.10;18.33;;;;;;;7.47;100.00;102760.53;5015338;28;20223;-80
2021/10/24 00:37:34;;;;;;;36.63;20.85;;;;;;;7.48;100.00;102762.34;5015142;28;20151;-79
2021/10/24 00:40:00;;;;;;;27.67;19.58;;;;;;;7.47;100.00;102758.78;5015216;28;20065;-79
2021/10/24 00:42:25;;;;;;;28.25;19.67;;;;;;;7.49;100.00;102765.03;5013981;28;20371;-79
2021/10/24 00:44:50;;;;;;;36.33;20.45;;;;;;;7.49;100.00;102761.50;5015376;28;20026;-80
2021/10/24 00:47:16;;;;;;;27.27;19.67;;;;;;;7.51;100.00;102765.13;5016182;28;20480;-80
2021/10/24 00:49:41;;;;;;;34.33;19.23;;;;;;;7.53;100.00;102760.91;5015358;28;20033;-80
2021/10/24 00:52:07;;;;;;;28.48;19.63;;;;;;;7.55;100.00;102754.03;5014863;28;20088;-79
2021/10/24 00:54:35;;;;;;;34.17;20.48;;;;;;;7.56;100.00;102753.22;5016422;28;20500;-79
2021/10/24 00:57:01;;;;;;;32.65;18.98;;;;;;;7.56;100.00;102754.09;5015401;28;20022;-80
2021/10/24 00:59:26;;;;;;;32.75;19.83;;;;;;;7.58;100.00;102755.13;5015076;28;20474;-79
2021/10/24 01:01:53;;;;;;;30.50;19.35;;;;;;;7.60;100.00;102756.09;5015992;28;20163;-80
2021/10/24 01:04:19;;;;;;;28.92;20.02;;;;;;;7.63;100.00;102752.75;5016047;28;20034;-79
2021/10/24 01:06:46;;;;;;;27.17;19.33;;;;;;;7.64;100.00;102749.34;5015863;28;20022;-80
2021/10/24 01:09:17;;;;;;;29.05;19.13;;;;;;;7.66;100.00;102746.81;5015448;28;20030;-79
2021/10/24 01:11:44;;;;;;;33.30;19.35;;;;;;;7.66;100.00;102746.81;5016336;28;20041;-79
2021/10/24 01:14:12;;;;;;;28.05;19.52;;;;;;;7.68;100.00;102745.19;5015052;28;20018;-79
2021/10/24 01:16:40;;;;;;;30.55;19.40;;;;;;;7.68;100.00;102740.84;5014722;28;20026;-79
2021/10/24 01:19:07;;;;;;;34.35;19.05;;;;;;;7.69;100.00;102737.41;5015180;28;20545;-79
2021/10/24 01:21:33;;;;;;;30.30;19.63;;;;;;;7.69;100.00;102736.50;5015232;28;20038;-80
2021/10/24 01:23:59;;;;;;;27.98;18.17;;;;;;;7.70;100.00;102733.97;5014846;28;20041;-79
2021/10/24 01:26:24;;;;;;;28.65;19.90;;;;;;;7.68;100.00;102730.34;5015419;28;20089;-79
2021/10/24 01:28:50;;;;;;;26.67;19.08;;;;;;;7.68;100.00;102724.22;5019643;28;20053;-79
2021/10/24 01:31:15;;;;;;;25.17;19.58;;;;;;;7.67;100.00;102728.53;5015420;28;20064;-80
2021/10/24 01:33:40;;;;;;;24.77;18.08;;;;;;;7.62;100.00;102724.75;5015501;28;20030;-78
2021/10/24 01:36:10;;;;;;;25.80;19.55;;;;;;;7.58;100.00;102725.38;5013134;28;20080;-78
2021/10/24 01:38:37;;;;;;;31.80;18.92;;;;;;;7.55;100.00;102723.47;5013792;28;20038;-78
2021/10/24 01:41:07;;;;;;;32.80;19.98;;;;;;;7.53;100.00;102724.22;5015400;28;20092;-79
2021/10/24 01:43:33;;;;;;;27.90;19.05;;;;;;;7.47;100.00;102718.59;5015205;28;20026;-79
2021/10/24 01:45:59;;;;;;;31.92;18.58;;;;;;;7.40;100.00;102713.00;5015111;28;20040;-79
2021/10/24 01:48:25;;;;;;;27.83;19.40;;;;;;;7.38;100.00;102711.09;5014515;28;20100;-80
2021/10/24 01:50:52;;;;;;;30.55;19.70;;;;;;;7.35;100.00;102717.06;5014092;28;20036;-79
2021/10/24 01:53:24;;;;;;;27.83;19.40;;;;;;;7.31;100.00;102714.16;5019138;28;20518;-80
2021/10/24 01:55:49;;;;;;;29.65;19.75;;;;;;;7.24;100.00;102718.13;5015552;28;20044;-79
2021/10/24 01:58:15;;;;;;;27.50;18.98;;;;;;;7.20;100.00;102708.28;5012628;28;20470;-80
2021/10/24 02:00:42;;;;;;;29.58;19.70;;;;;;;7.19;100.00;102706.47;5015002;28;20072;-79
2021/10/24 02:03:09;;;;;;;33.60;19.77;;;;;;;7.17;100.00;102708.09;5015103;28;20508;-80
2021/10/24 02:05:34;;;;;;;33.78;20.02;;;;;;;7.15;100.00;102704.47;5015136;28;20445;-79
2021/10/24 02:08:00;;;;;;;31.70;20.90;;;;;;;7.12;100.00;102704.28;5014483;28;20046;-79
2021/10/24 02:10:25;;;;;;;35.33;21.48;;;;;;;7.12;100.00;102709.53;5015296;28;20033;-79
2021/10/24 02:12:50;;;;;;;34.33;21.38;;;;;;;7.08;100.00;102696.25;5014588;28;20026;-79
2021/10/24 02:15:16;;;;;;;36.72;20.80;;;;;;;7.07;100.00;102697.06;5012320;28;20109;-79
2021/10/24 02:17:41;;;;;;;32.65;21.85;;;;;;;7.05;100.00;102688.22;5012812;28;20033;-80
2021/10/24 02:20:08;;;;;;;33.47;23.00;;;;;;;7.03;100.00;102687.22;5013886;28;20022;-79
2021/10/24 02:22:33;;;;;;;31.00;21.52;;;;;;;6.99;100.00;102680.00;5014973;28;20499;-80
2021/10/24 02:24:59;;;;;;;34.58;22.25;;;;;;;6.97;100.00;102685.94;5014406;28;20025;-79
2021/10/24 02:27:24;;;;;;;34.05;21.90;;;;;;;6.93;100.00;102684.84;5013475;28;20038;-79
2021/10/24 02:29:49;;;;;;;35.95;21.80;;;;;;;6.88;100.00;102681.06;5015589;28;20477;-80
2021/10/24 02:32:15;;;;;;;35.47;21.70;;;;;;;6.85;100.00;102680.84;5011306;28;20069;-79
2021/10/24 02:34:41;;;;;;;31.45;20.38;;;;;;;6.83;100.00;102672.03;4994114;28;20482;-79
2021/10/24 02:37:06;;;;;;;37.30;21.85;;;;;;;6.80;100.00;102664.00;5008885;28;20038;-79
2021/10/24 02:39:31;;;;;;;33.58;22.67;;;;;;;6.78;100.00;102671.72;5011799;28;20113;-80
2021/10/24 02:41:57;;;;;;;33.95;21.75;;;;;;;6.74;100.00;102669.72;5014883;28;20053;-79
2021/10/24 02:44:23;;;;;;;38.90;22.58;;;;;;;6.71;100.00;102665.19;5013206;28;20089;-79
2021/10/24 02:46:49;;;;;;;35.03;23.52;;;;;;;6.68;100.00;102671.97;5013043;28;20072;-78
2021/10/24 02:49:15;;;;;;;33.38;22.17;;;;;;;6.65;100.00;102662.22;5012160;28;20101;-79
2021/10/24 02:51:40;;;;;;;38.60;23.17;;;;;;;6.61;100.00;102660.22;5014712;28;20490;-79
2021/10/24 02:54:06;;;;;;;37.97;22.67;;;;;;;6.60;100.00;102655.78;5018840;28;20030;-78
2021/10/24 02:56:31;;;;;;;35.85;22.38;;;;;;;6.55;100.00;102654.59;5014441;28;20108;-80
2021/10/24 02:58:57;;;;;;;35.65;23.10;;;;;;;6.52;100.00;102657.03;5013848;28;20108;-79
2021/10/24 03:01:22;;;;;;;33.58;22.75;;;;;;;6.49;100.00;102646.38;5014448;28;20030;-79
2021/10/24 03:03:48;;;;;;;37.13;23.95;;;;;;;6.46;100.00;102652.34;5012170;28;20075;-79
2021/10/24 03:06:13;;;;;;;30.85;21.77;;;;;;;6.43;100.00;102646.00;5013318;28;20030;-77
2021/10/24 03:08:38;;;;;;;36.72;23.20;;;;;;;6.40;100.00;102649.31;5012693;28;20073;-79
2021/10/24 03:11:04;;;;;;;35.78;22.73;;;;;;;6.38;100.00;102648.34;5014059;28;20037;-78
2021/10/24 03:13:29;;;;;;;33.58;22.95;;;;;;;6.33;100.00;102639.28;5013906;28;20055;-78
2021/10/24 03:15:54;;;;;;;29.83;21.60;;;;;;;6.32;100.00;102642.69;5013216;28;20115;-78
2021/10/24 03:18:20;;;;;;;35.45;21.83;;;;;;;6.28;100.00;102640.69;5012448;28;20053;-79
2021/10/24 03:20:46;;;;;;;35.00;23.00;;;;;;;6.23;100.00;102640.44;5016516;28;20060;-79
2021/10/24 03:23:12;;;;;;;33.53;22.42;;;;;;;6.19;100.00;102635.81;5017166;28;20049;-78
2021/10/24 03:25:37;;;;;;;30.02;21.63;;;;;;;6.17;100.00;102637.41;5015428;28;20426;-78
2021/10/24 03:28:03;;;;;;;34.58;22.15;;;;;;;6.16;100.00;102640.81;5017967;28;20026;-79
2021/10/24 03:30:29;;;;;;;34.42;23.52;;;;;;;6.13;100.00;102635.41;5016622;28;20097;-79
2021/10/24 03:32:54;;;;;;;38.38;22.15;;;;;;;6.08;100.00;102636.03;5015772;28;20029;-79
2021/10/24 03:35:19;;;;;;;35.10;22.55;;;;;;;6.06;100.00;102637.66;5017238;28;20087;-78
2021/10/24 03:37:45;;;;;;;34.13;23.85;;;;;;;6.03;100.00;102642.66;5017640;28;20068;-79
2021/10/24 03:40:11;;;;;;;35.50;23.42;;;;;;;5.99;100.00;102635.44;5015808;28;20167;-78
2021/10/24 03:42:36;;;;;;;31.48;22.95;;;;;;;5.98;100.00;102636.25;5017361;28;20038;-78
2021/10/24 03:45:03;;;;;;;37.85;23.85;;;;;;;5.95;100.00;102635.13;5017404;28;20458;-78
2021/10/24 03:47:28;;;;;;;40.05;22.98;;;;;;;5.92;100.00;102635.81;5015700;28;20037;-80
2021/10/24 03:49:54;;;;;;;34.70;23.55;;;;;;;5.90;100.00;102633.09;5017356;28;20034;-78
2021/10/24 03:52:19;;;;;;;36.13;23.90;;;;;;;5.88;100.00;102633.81;5017230;28;20105;-78
2021/10/24 03:54:44;;;;;;;34.03;23.20;;;;;;;5.86;100.00;102635.41;5029827;28;20045;-79
2021/10/24 03:57:10;;;;;;;32.72;21.65;;;;;;;5.83;100.00;102635.22;5016241;28;20104;-79
2021/10/24 03:59:35;;;;;;;35.58;22.35;;;;;;;5.81;100.00;102632.50;5015479;28;20053;-79
2021/10/24 04:02:00;;;;;;;32.67;21.23;;;;;;;5.78;100.00;102631.38;5015098;28;20029;-78
2021/10/24 04:04:26;;;;;;;34.47;21.33;;;;;;;5.76;100.00;102626.06;5017069;28;20030;-78
2021/10/24 04:06:51;;;;;;;31.38;20.45;;;;;;;5.74;100.00;102625.97;5016350;28;20485;-78
2021/10/24 04:09:16;;;;;;;31.98;21.23;;;;;;;5.70;100.00;102623.97;5015951;28;20025;-78
2021/10/24 04:11:42;;;;;;;31.17;20.83;;;;;;;5.68;100.00;102625.59;5017186;28;20025;-78
2021/10/24 04:14:07;;;;;;;31.83;20.90;;;;;;;5.65;100.00;102617.53;5015438;28;20037;-79
2021/10/24 04:16:32;;;;;;;30.33;20.20;;;;;;;5.64;100.00;102612.22;5016499;28;20033;-78
2021/10/24 04:18:58;;;;;;;27.48;20.48;;;;;;;5.64;100.00;102617.44;5015944;28;20041;-78
2021/10/24 04:21:23;;;;;;;36.03;22.38;;;;;;;5.62;100.00;102619.06;5016325;28;20034;-78
2021/10/24 04:23:48;;;;;;;27.80;20.13;;;;;;;5.58;100.00;102617.94;5016732;28;20393;-78
2021/10/24 04:26:14;;;;;;;35.92;22.92;;;;;;;5.59;100.00;102619.75;5014911;28;20041;-78
2021/10/24 04:28:39;;;;;;;32.38;20.27;;;;;;;5.54;100.00;102611.59;5024290;28;20032;-78
2021/10/24 04:31:05;;;;;;;32.38;21.42;;;;;;;5.55;100.00;102615.16;5019733;28;20026;-78
2021/10/24 04:33:30;;;;;;;29.27;20.35;;;;;;;5.53;100.00;102607.19;5015129;28;20026;-78
2021/10/24 04:35:56;;;;;;;30.73;20.15;;;;;;;5.50;100.00;102611.31;5014953;28;20034;-79
2021/10/24 04:38:21;;;;;;;37.05;21.55;;;;;;;5.47;100.00;102600.69;5016353;28;20045;-78
2021/10/24 04:40:47;;;;;;;30.92;21.02;;;;;;;5.46;100.00;102596.25;5014689;28;20036;-78
2021/10/24 04:43:16;;;;;;;28.30;19.80;;;;;;;5.44;100.00;102597.84;5015934;28;20088;-77
2021/10/24 04:45:42;;;;;;;34.22;20.05;;;;;;;5.42;100.00;102594.25;5015187;28;20102;-77
2021/10/24 04:48:07;;;;;;;30.55;20.27;;;;;;;5.38;100.00;102591.41;5015020;28;20489;-80
2021/10/24 04:50:33;;;;;;;27.70;20.67;;;;;;;5.36;100.00;102590.44;5014388;28;20033;-77
2021/10/24 04:52:58;;;;;;;32.17;19.45;;;;;;;5.36;100.00;102589.53;5019126;28;20477;-78
2021/10/24 04:55:24;;;;;;;31.60;19.90;;;;;;;5.36;100.00;102584.31;5017534;28;20030;-78
2021/10/24 04:57:49;;;;;;;28.35;19.92;;;;;;;5.37;100.00;102578.25;5015131;28;20040;-78
2021/10/24 05:00:14;;;;;;;33.08;20.40;;;;;;;5.35;100.00;102583.38;5015110;28;20105;-78
2021/10/24 05:02:40;;;;;;;36.75;22.35;;;;;;;5.37;100.00;102578.25;5013518;28;20128;-78
2021/10/24 05:05:05;;;;;;;31.65;21.20;;;;;;;5.34;100.00;102571.13;5015289;28;20147;-78
2021/10/24 05:07:31;;;;;;;28.95;19.23;;;;;;;5.34;100.00;102572.84;5015195;28;20474;-78
2021/10/24 05:09:56;;;;;;;32.35;20.85;;;;;;;5.32;100.00;102572.75;5015783;28;20025;-78
2021/10/24 05:12:22;;;;;;;27.95;20.38;;;;;;;5.31;100.00;102568.34;5015046;28;20061;-78
2021/10/24 05:14:47;;;;;;;31.38;20.58;;;;;;;5.31;100.00;102575.28;5015901;28;20100;-78
2021/10/24 05:17:12;;;;;;;30.80;18.88;;;;;;;5.29;100.00;102562.13;5014325;28;20037;-79
2021/10/24 05:19:38;;;;;;;27.70;18.73;;;;;;;5.26;100.00;102556.69;5014988;28;20064;-79
2021/10/24 05:22:03;;;;;;;28.42;18.83;;;;;;;5.24;100.00;102556.56;5013177;28;20044;-79
2021/10/24 05:24:28;;;;;;;29.20;20.00;;;;;;;5.24;100.00;102556.56;5015848;28;20358;-79
2021/10/24 05:26:55;;;;;;;25.90;19.13;;;;;;;5.23;100.00;102556.47;5012816;28;20073;-79
2021/10/24 05:29:20;;;;;;;29.20;20.77;;;;;;;5.23;100.00;102551.25;5014139;28;20073;-78
2021/10/24 05:31:46;;;;;;;30.27;18.17;;;;;;;5.24;100.00;102547.84;5010936;28;20064;-79
2021/10/24 05:34:11;;;;;;;28.15;18.83;;;;;;;5.24;100.00;102548.75;5014232;28;20018;-77
2021/10/24 05:36:36;;;;;;;31.45;20.35;;;;;;;5.23;100.00;102546.94;5015496;28;20125;-79
2021/10/24 05:39:02;;;;;;;31.58;19.05;;;;;;;5.24;100.00;102548.75;5013866;28;20065;-76
2021/10/24 05:41:27;;;;;;;30.88;19.67;;;;;;;5.24;100.00;102547.84;5014826;28;20030;-78
2021/10/24 05:43:56;;;;;;;30.88;18.98;;;;;;;5.22;100.00;102533.78;5013225;28;20030;-79
2021/10/24 05:46:21;;;;;;;24.92;17.90;;;;;;;5.22;100.00;102532.09;5014505;28;20470;-79
2021/10/24 05:48:47;;;;;;;30.23;19.40;;;;;;;5.21;100.00;102532.00;5015044;28;20030;-79
2021/10/24 05:51:12;;;;;;;32.33;19.83;;;;;;;5.20;100.00;102536.31;5013689;28;20034;-78
2021/10/24 05:53:38;;;;;;;28.70;18.20;;;;;;;5.19;100.00;102529.28;5025140;28;20025;-78
2021/10/24 05:56:04;;;;;;;31.45;19.80;;;;;;;5.18;100.00;102529.16;5026589;28;20038;-79
2021/10/24 05:58:29;;;;;;;32.20;18.52;;;;;;;5.15;100.00;102521.16;5013729;28;20025;-79
2021/10/24 06:00:54;;;;;;;30.88;19.15;;;;;;;5.13;100.00;102520.13;5013035;28;20133;-79
2021/10/24 06:03:20;;;;;;;30.95;19.38;;;;;;;5.13;100.00;102520.13;5014805;28;20054;-79
2021/10/24 06:05:45;;;;;;;28.80;19.70;;;;;;;5.13;100.00;102518.44;5014994;28;20060;-79
2021/10/24 06:08:20;;;;;;;28.88;19.25;;;;;;;5.13;100.00;102522.75;5014033;28;20494;-78
2021/10/24 06:10:48;;;;;;;28.77;17.85;;;;;;;5.11;100.00;102513.94;5006304;28;20032;-79
2021/10/24 06:13:13;;;;;;;27.13;18.67;;;;;;;5.11;100.00;102516.53;5014348;28;20381;-79
2021/10/24 06:15:39;;;;;;;29.00;18.35;;;;;;;5.11;100.00;102513.94;5013853;28;20129;-79
2021/10/24 06:18:06;;;;;;;27.40;18.63;;;;;;;5.09;100.00;102512.91;5014348;28;20041;-79
2021/10/24 06:20:31;;;;;;;31.98;18.17;;;;;;;5.06;100.00;102513.63;5014892;28;20041;-78
2021/10/24 06:22:57;;;;;;;35.67;19.05;;;;;;;5.05;100.00;102510.09;5014514;28;20397;-79
2021/10/24 06:25:22;;;;;;;31.20;18.80;;;;;;;5.05;100.00;102515.31;5013985;28;20486;-78
2021/10/24 06:27:47;;;;;;;31.58;19.00;;;;;;;5.03;100.00;102522.16;5014575;28;20033;-78
2021/10/24 06:30:17;;;;;;;27.40;18.38;;;;;;;5.03;100.00;102514.34;5013426;28;20025;-77
2021/10/24 06:32:43;;;;;;;27.70;18.98;;;;;;;5.00;100.00;102515.81;5018252;28;20026;-77
2021/10/24 06:35:09;;;;;;;27.10;19.50;;;;;;;4.99;100.00;102506.19;5012574;28;20113;-78
2021/10/24 06:37:44;;;;;;;26.77;18.25;;;;;;;4.96;100.00;102501.66;5013155;28;20065;-78
2021/10/24 06:40:10;;;;;;;28.83;18.65;;;;;;;4.99;100.00;102498.34;5006302;28;20096;-78
2021/10/24 06:42:36;;;;;;;28.92;18.02;;;;;;;5.00;100.00;102500.16;5014599;28;20026;-77
2021/10/24 06:45:03;;;;;;;30.98;19.13;;;;;;;5.00;100.00;102506.28;5013389;28;20558;-80
2021/10/24 06:47:29;;;;;;;26.90;17.00;;;;;;;4.99;100.00;102508.78;5013829;28;20042;-77
2021/10/24 06:49:54;;;;;;;30.63;18.73;;;;;;;5.00;100.00;102501.06;5014360;28;20037;-78
2021/10/24 06:52:19;;;;;;;25.10;16.95;;;;;;;5.00;100.00;102506.28;5012337;28;20481;-77
2021/10/24 06:54:45;;;;;;;26.88;18.38;;;;;;;4.99;100.00;102498.34;5014870;28;20037;-77
2021/10/24 06:57:10;;;;;;;23.92;17.35;;;;;;;4.98;100.00;102505.28;5017231;28;20072;-79
2021/10/24 06:59:39;;;;;;;27.55;17.63;;;;;;;5.00;100.00;102500.16;5017242;28;20385;-78
2021/10/24 07:02:05;;;;;;;28.45;18.20;;;;;;;5.00;100.00;102503.66;5017285;28;20521;-78
2021/10/24 07:04:30;;;;;;;27.92;17.73;;;;;;;5.01;100.00;102508.09;5018305;28;20030;-77
2021/10/24 07:06:55;;;;;;;27.88;16.88;;;;;;;5.01;100.00;102502.88;5013775;28;20030;-78
2021/10/24 07:09:21;;;;;;;26.98;17.38;;;;;;;5.02;100.00;102504.69;5016798;28;20096;-77
2021/10/24 07:11:46;;;;;;;26.50;17.40;;;;;;;5.04;100.00;102508.28;5012358;28;20057;-79
2021/10/24 07:14:12;;;;;;;26.52;17.95;;;;;;;5.06;100.00;102511.91;5017814;28;20108;-77
2021/10/24 07:16:37;;;;;;;25.55;16.95;;;;;;;5.09;100.00;102520.72;5015931;28;20033;-78
2021/10/24 07:19:02;;;;;;;23.50;16.90;;;;;;;5.11;100.00;102513.94;5026161;28;20541;-78
2021/10/24 07:21:28;;;;;;;23.15;16.42;;;;;;;5.13;100.00;102514.91;5017380;28;20026;-77
2021/10/24 07:23:53;;;;;;;22.45;15.63;;;;;;;5.16;100.00;102516.03;5016196;28;20034;-79
2021/10/24 07:26:19;;;;;;;25.13;16.20;;;;;;;5.18;100.00;102505.69;5016530;28;20042;-78
2021/10/24 07:28:44;;;;;;;31.13;16.30;;;;;;;5.20;100.00;102510.19;5020897;28;20028;-76
2021/10/24 07:31:09;;;;;;;22.33;15.60;;;;;;;5.24;100.00;102501.78;5020840;28;20089;-74
2021/10/24 07:33:36;;;;;;;27.65;16.45;;;;;;;5.28;100.00;102499.38;5015683;28;20104;-78
2021/10/24 07:36:01;;;;;;;27.27;16.58;;;;;;;5.32;100.00;102498.78;5017551;28;20486;-78
2021/10/24 07:38:27;;;;;;;24.17;15.88;;;;;;;5.34;100.00;102497.16;5016416;28;20049;-78
2021/10/24 07:40:52;;;;;;;24.88;16.15;;;;;;;5.35;100.00;102502.47;5017092;28;20068;-77
2021/10/24 07:43:22;;;;;;;25.83;16.67;;;;;;;5.39;100.00;102496.63;5027491;28;20025;-76
2021/10/24 07:45:48;;;;;;;23.85;15.88;;;;;;;5.43;100.00;102489.91;5024783;28;20117;-78
2021/10/24 07:48:14;;;;;;;22.63;16.50;;;;;;;5.47;100.00;102496.25;5032691;28;20030;-77
2021/10/24 07:50:39;;;;;;;22.27;15.80;;;;;;;5.50;100.00;102499.06;5022366;28;20033;-77
2021/10/24 07:53:05;;;;;;;24.20;16.13;;;;;;;5.52;100.00;102497.41;5020339;28;20022;-78
2021/10/24 07:55:31;;;;;;;23.92;16.45;;;;;;;5.56;100.00;102504.66;5016909;28;20084;-78
2021/10/24 07:57:57;;;;;;;21.65;15.45;;;;;;;5.62;100.00;102505.06;5016230;28;20033;-78
2021/10/24 08:00:23;;;;;;;20.80;15.68;;;;;;;5.67;100.00;102501.03;5032031;28;22034;-78
2021/10/24 08:02:48;;;;;;;25.13;16.15;;;;;;;5.76;100.00;102499.81;5015860;28;20080;-78
2021/10/24 08:05:14;;;;;;;23.08;17.05;;;;;;;5.79;100.00;102498.25;5013399;28;20029;-78
2021/10/24 08:07:41;;;;;;;19.40;15.02;;;;;;;5.84;100.00;102490.72;5015876;28;20025;-78
2021/10/24 08:10:07;;;;;;;21.85;15.55;;;;;;;5.89;100.00;102489.31;5016247;28;20029;-77
2021/10/24 08:12:33;;;;;;;21.00;14.80;;;;;;;5.95;100.00;102489.69;5016684;28;20066;-78
2021/10/24 08:14:59;;;;;;;27.23;16.80;;;;;;;6.01;100.00;102490.09;5016614;28;20025;-78
2021/10/24 08:17:25;;;;;;;21.20;15.25;;;;;;;6.06;100.00;102480.84;5016447;28;20500;-78
2021/10/24 08:19:50;;;;;;;23.25;16.50;;;;;;;6.14;100.00;102480.41;5017009;28;20113;-78
2021/10/24 08:22:18;;;;;;;20.83;15.07;;;;;;;6.20;100.00;102478.16;5016707;28;20120;-78
2021/10/24 08:24:44;;;;;;;21.33;14.63;;;;;;;6.28;100.00;102471.69;5015689;28;20021;-78
2021/10/24 08:27:11;;;;;;;19.88;14.90;;;;;;;6.37;100.00;102476.56;5016578;28;20046;-78
2021/10/24 08:29:37;;;;;;;16.35;12.85;;;;;;;6.49;100.00;102473.78;5027636;28;20101;-78
2021/10/24 08:32:05;;;;;;;21.15;13.95;;;;;;;6.60;100.00;102464.84;5015631;28;20057;-77
2021/10/24 08:34:31;;;;;;;20.52;13.50;;;;;;;6.69;100.00;102467.13;5019115;28;20046;-76
2021/10/24 08:36:57;;;;;;;17.80;13.52;;;;;;;6.79;100.00;102463.31;5011036;28;20393;-77
2021/10/24 08:39:22;;;;;;;21.60;12.98;;;;;;;6.92;100.00;102465.84;5015122;28;20077;-77
2021/10/24 08:41:50;;;;;;;16.92;12.82;;;;;;;7.04;100.00;102461.31;5015519;28;20034;-77
2021/10/24 08:44:16;;;;;;;18.52;13.20;;;;;;;7.14;99.86;102440.91;5015606;28;20458;-78
2021/10/24 08:46:42;;;;;;;18.33;12.73;;;;;;;7.27;100.00;102443.41;5013463;28;20041;-77
2021/10/24 08:49:09;;;;;;;18.60;11.70;;;;;;;7.46;99.79;102444.38;5019217;28;20021;-77
2021/10/24 08:51:35;;;;;;;16.23;12.27;;;;;;;7.65;98.65;102441.06;5016057;28;20089;-77
2021/10/24 08:54:01;;;;;;;15.75;11.38;;;;;;;7.91;98.31;102439.84;5022509;28;20103;-77
2021/10/24 08:56:29;;;;;;;17.70;10.85;;;;;;;8.26;97.21;102430.28;5015145;28;20036;-78
2021/10/24 08:58:55;;;;;;;12.95;10.82;;;;;;;8.68;94.44;102422.88;5015106;28;20039;-77
2021/10/24 09:01:21;;;;;;;12.93;9.90;;;;;;;9.13;92.73;102421.47;5018013;28;20121;-77
2021/10/24 09:04:07;;;;;;;11.73;9.80;;;;;;;9.52;89.43;102409.34;5013913;28;20061;-76
2021/10/24 09:06:56;;;;;;;14.40;10.13;;;;;;;9.91;87.85;102406.69;5014406;28;20065;-79
2021/10/24 09:09:30;;;;;;;12.48;8.90;;;;;;;10.37;85.42;102401.69;5013746;28;20478;-76
2021/10/24 09:12:05;;;;;;;9.25;7.50;;;;;;;10.74;82.43;102401.50;5013817;28;20379;-77
2021/10/24 09:14:48;;;;;;;11.20;7.75;;;;;;;11.01;79.70;102398.16;5019136;28;20064;-79
2021/10/24 09:17:31;;;;;;;11.97;7.20;;;;;;;11.30;78.78;102386.13;5013619;28;20474;-78
2021/10/24 09:19:59;;;;;;;12.68;7.28;;;;;;;11.61;78.11;102391.66;5013754;28;20300;-80
2021/10/24 09:22:36;;;;;;;16.52;7.40;;;;;;;11.85;76.50;102390.78;5013937;28;20097;-78
2021/10/24 09:25:19;;;;;;;9.02;6.35;;;;;;;12.08;75.83;102381.97;5014974;28;20022;-78
2021/10/24 09:27:57;;;;;;;10.35;6.25;;;;;;;12.27;72.46;102372.06;5013992;28;20021;-79
2021/10/24 09:30:34;;;;;;;7.85;5.70;;;;;;;12.41;71.84;102368.16;5014780;28;20045;-79
2021/10/24 09:33:09;;;;;;;7.22;5.70;;;;;;;12.51;70.18;102357.88;5014965;28;20022;-78
2021/10/24 09:35:47;;;;;;;8.48;5.30;;;;;;;12.43;69.10;102355.88;5013930;28;20390;-78
2021/10/24 09:38:14;;;;;;;10.80;5.85;;;;;;;12.51;69.11;102352.59;5014589;28;20038;-78
2021/10/24 09:40:46;;;;;;;9.85;5.57;;;;;;;12.55;68.35;102346.59;5023065;28;20358;-78
2021/10/24 09:43:26;;;;;;;9.30;5.25;;;;;;;12.67;67.53;102344.34;5018847;28;20113;-79
2021/10/24 09:45:58;;;;;;;8.70;5.68;;;;;;;12.71;68.00;102350.59;5017396;28;20049;-78
2021/10/24 09:48:29;;;;;;;15.02;5.55;;;;;;;12.91;67.83;102348.59;5025082;28;20030;-78
2021/10/24 09:51:00;;;;;;;8.75;4.90;;;;;;;13.16;66.20;102339.69;5022601;28;20084;-77
2021/10/24 09:53:27;;;;;;;10.07;5.07;;;;;;;13.44;64.77;102336.16;5016698;28;20037;-78
2021/10/24 09:55:53;;;;;;;7.35;4.65;;;;;;;13.61;64.54;102338.38;5015292;28;20030;-78
2021/10/24 09:58:20;;;;;;;8.88;4.93;;;;;;;13.72;62.02;102334.25;5017931;28;20036;-77
2021/10/24 10:00:46;;;;;;;5.18;4.57;;;;;;;13.81;62.23;102331.00;5012140;28;20040;-78
2021/10/24 10:03:12;;;;;;;7.97;4.78;;;;;;;14.16;61.62;102339.84;5013209;28;20416;-79
2021/10/24 10:05:39;;;;;;;6.95;4.20;;;;;;;14.44;60.65;102323.75;5017455;28;20025;-77
2021/10/24 10:08:09;;;;;;;7.53;4.10;;;;;;;14.69;59.64;102327.03;5012922;28;20037;-78
2021/10/24 10:10:40;;;;;;;7.50;4.68;;;;;;;14.94;59.13;102323.19;5013696;28;20450;-78
2021/10/24 10:13:12;;;;;;;6.10;4.15;;;;;;;15.23;58.08;102323.78;5011748;28;20120;-79
2021/10/24 10:15:41;;;;;;;6.43;4.00;;;;;;;15.35;55.91;102323.16;5014466;28;20080;-80
2021/10/24 10:18:07;;;;;;;8.50;4.30;;;;;;;15.58;56.43;102325.41;5009574;28;20040;-79
2021/10/24 10:20:35;;;;;;;5.45;3.90;;;;;;;15.66;54.72;102329.97;5017020;28;20105;-77
2021/10/24 10:23:06;;;;;;;8.55;4.10;;;;;;;15.70;54.95;102320.31;5013857;28;20053;-78
2021/10/24 10:25:35;;;;;;;4.97;4.20;;;;;;;15.64;54.28;102320.19;5008803;28;20057;-78
2021/10/24 10:28:00;;;;;;;6.95;4.50;;;;;;;15.83;54.47;102319.72;5015704;28;20080;-77
2021/10/24 10:30:33;;;;;;;5.80;3.97;;;;;;;15.88;52.72;102308.28;5009861;28;20037;-77
2021/10/24 10:33:00;;;;;;;10.63;4.68;;;;;;;16.08;54.33;102309.53;5013412;28;20026;-76
2021/10/24 10:35:29;;;;;;;7.38;4.32;;;;;;;16.42;53.58;102314.53;5018403;28;20444;-78
2021/10/24 10:37:57;;;;;;;5.53;3.83;;;;;;;16.64;53.70;102315.75;5021887;28;20100;-76
2021/10/24 10:40:25;;;;;;;7.72;4.47;;;;;;;16.93;51.10;102305.56;5013108;28;20030;-78
2021/10/24 10:42:56;;;;;;;8.32;4.32;;;;;;;17.26;49.42;102304.22;5012338;28;20033;-79
2021/10/24 10:45:34;;;;;;;8.75;4.43;;;;;;;17.32;48.89;102298.97;5013062;28;20045;-79
2021/10/24 10:48:04;;;;;;;8.15;4.35;;;;;;;17.31;48.39;102293.66;5013821;28;20106;-78
2021/10/24 10:50:30;;;;;;;8.90;4.47;;;;;;;17.48;49.45;102300.03;5013919;28;20033;-76
2021/10/24 10:53:01;;;;;;;6.63;4.18;;;;;;;17.49;49.52;102295.63;5014213;28;20030;-76
2021/10/24 10:55:56;;;;;;;7.68;4.85;;;;;;;17.83;48.64;102290.63;5012631;28;20041;-79
2021/10/24 10:58:40;;;;;;;7.18;4.50;;;;;;;18.32;47.16;102295.53;5011001;28;20045;-76
2021/10/24 11:01:16;;;;;;;8.70;4.50;;;;;;;18.09;46.34;102288.22;5011226;28;20030;-75
2021/10/24 11:03:46;;;;;;;13.38;4.32;;;;;;;18.13;46.94;102282.06;5016999;28;20021;-77
2021/10/24 11:06:27;;;;;;;6.55;4.22;;;;;;;18.34;46.01;102288.47;5014375;28;20340;-79
2021/10/24 11:08:56;;;;;;;6.35;4.10;;;;;;;18.32;46.07;102287.53;5014516;28;20057;-78
2021/10/24 11:11:40;;;;;;;7.38;4.43;;;;;;;18.45;47.06;102286.75;5016674;28;20076;-78